sensor_id;sensor_type;location;lat;lon;timestamp;temperature;humidity
46217;DHT22;47258;59.424;13.482;2024-02-21T00:00:47;3.90;99.90
46217;DHT22;47258;59.424;13.482;2024-02-21T00:03:13;3.90;99.90
46217;DHT22;47258;59.424;13.482;2024-02-21T00:05:39;3.90;99.90
46217;DHT22;47258;59.424;13.482;2024-02-21T00:08:05;3.90;99.90
46217;DHT22;47258;59.424;13.482;2024-02-21T00:10:31;3.90;99.90
46217;DHT22;47258;59.424;13.482;2024-02-21T00:12:58;3.90;99.90
46217;DHT22;47258;59.424;13.482;2024-02-21T00:15:25;3.90;99.90
46217;DHT22;47258;59.424;13.482;2024-02-21T00:17:51;3.90;99.90
46217;DHT22;47258;59.424;13.482;2024-02-21T00:20:17;4.00;99.90
46217;DHT22;47258;59.424;13.482;2024-02-21T00:22:43;4.00;99.90
46217;DHT22;47258;59.424;13.482;2024-02-21T00:25:09;4.00;99.90
46217;DHT22;47258;59.424;13.482;2024-02-21T00:27:35;4.00;99.90
46217;DHT22;47258;59.424;13.482;2024-02-21T00:30:01;4.00;99.90
46217;DHT22;47258;59.424;13.482;2024-02-21T00:32:27;4.10;99.90
46217;DHT22;47258;59.424;13.482;2024-02-21T00:34:52;4.10;99.90
46217;DHT22;47258;59.424;13.482;2024-02-21T00:37:18;4.10;99.90
46217;DHT22;47258;59.424;13.482;2024-02-21T00:39:44;4.10;99.90
46217;DHT22;47258;59.424;13.482;2024-02-21T00:42:09;4.10;99.90
46217;DHT22;47258;59.424;13.482;2024-02-21T00:44:35;4.20;99.90
46217;DHT22;47258;59.424;13.482;2024-02-21T00:47:01;4.20;99.90
46217;DHT22;47258;59.424;13.482;2024-02-21T00:49:27;4.20;99.90
46217;DHT22;47258;59.424;13.482;2024-02-21T00:51:52;4.30;99.90
46217;DHT22;47258;59.424;13.482;2024-02-21T00:54:18;4.30;99.90
46217;DHT22;47258;59.424;13.482;2024-02-21T00:56:44;4.30;99.90
46217;DHT22;47258;59.424;13.482;2024-02-21T00:59:09;4.30;99.90
46217;DHT22;47258;59.424;13.482;2024-02-21T01:01:35;4.30;99.90
46217;DHT22;47258;59.424;13.482;2024-02-21T01:04:01;4.30;99.90
46217;DHT22;47258;59.424;13.482;2024-02-21T01:06:26;4.30;99.90
46217;DHT22;47258;59.424;13.482;2024-02-21T01:08:52;4.30;99.90
46217;DHT22;47258;59.424;13.482;2024-02-21T01:11:18;4.30;99.90
46217;DHT22;47258;59.424;13.482;2024-02-21T01:13:44;4.40;99.90
46217;DHT22;47258;59.424;13.482;2024-02-21T01:16:10;4.40;99.90
46217;DHT22;47258;59.424;13.482;2024-02-21T01:18:37;4.40;99.90
46217;DHT22;47258;59.424;13.482;2024-02-21T01:21:05;4.40;99.90
46217;DHT22;47258;59.424;13.482;2024-02-21T01:23:33;4.30;99.90
46217;DHT22;47258;59.424;13.482;2024-02-21T01:25:59;4.40;99.90
46217;DHT22;47258;59.424;13.482;2024-02-21T01:28:25;4.40;99.90
46217;DHT22;47258;59.424;13.482;2024-02-21T01:30:51;4.40;99.90
46217;DHT22;47258;59.424;13.482;2024-02-21T01:33:17;4.40;99.90
46217;DHT22;47258;59.424;13.482;2024-02-21T01:35:43;4.40;99.90
46217;DHT22;47258;59.424;13.482;2024-02-21T01:38:08;4.40;99.90
46217;DHT22;47258;59.424;13.482;2024-02-21T01:40:34;4.40;99.90
46217;DHT22;47258;59.424;13.482;2024-02-21T01:43:00;4.50;99.90
46217;DHT22;47258;59.424;13.482;2024-02-21T01:45:26;4.50;99.90
46217;DHT22;47258;59.424;13.482;2024-02-21T01:47:51;4.50;99.90
46217;DHT22;47258;59.424;13.482;2024-02-21T01:50:17;4.50;99.90
46217;DHT22;47258;59.424;13.482;2024-02-21T01:52:46;4.50;99.90
46217;DHT22;47258;59.424;13.482;2024-02-21T01:55:13;4.50;99.90
46217;DHT22;47258;59.424;13.482;2024-02-21T01:57:40;4.50;99.90
46217;DHT22;47258;59.424;13.482;2024-02-21T02:00:07;4.60;99.90
46217;DHT22;47258;59.424;13.482;2024-02-21T02:02:34;4.50;99.90
46217;DHT22;47258;59.424;13.482;2024-02-21T02:05:01;4.60;99.90
46217;DHT22;47258;59.424;13.482;2024-02-21T02:07:26;4.60;99.90
46217;DHT22;47258;59.424;13.482;2024-02-21T02:09:52;4.60;99.90
46217;DHT22;47258;59.424;13.482;2024-02-21T02:12:18;4.60;99.90
46217;DHT22;47258;59.424;13.482;2024-02-21T02:14:44;4.60;99.90
46217;DHT22;47258;59.424;13.482;2024-02-21T02:17:09;4.60;99.90
46217;DHT22;47258;59.424;13.482;2024-02-21T02:19:35;4.60;99.90
46217;DHT22;47258;59.424;13.482;2024-02-21T02:22:09;4.60;99.90
46217;DHT22;47258;59.424;13.482;2024-02-21T02:24:35;4.60;99.90
46217;DHT22;47258;59.424;13.482;2024-02-21T02:27:01;4.70;99.90
46217;DHT22;47258;59.424;13.482;2024-02-21T02:29:26;4.60;99.90
46217;DHT22;47258;59.424;13.482;2024-02-21T02:31:52;4.60;99.90
46217;DHT22;47258;59.424;13.482;2024-02-21T02:34:18;4.60;99.90
46217;DHT22;47258;59.424;13.482;2024-02-21T02:36:43;4.60;99.90
46217;DHT22;47258;59.424;13.482;2024-02-21T02:39:09;4.60;99.90
46217;DHT22;47258;59.424;13.482;2024-02-21T02:41:38;4.60;99.90
46217;DHT22;47258;59.424;13.482;2024-02-21T02:44:03;4.60;99.90
46217;DHT22;47258;59.424;13.482;2024-02-21T02:46:29;4.60;99.90
46217;DHT22;47258;59.424;13.482;2024-02-21T02:48:55;4.60;99.90
46217;DHT22;47258;59.424;13.482;2024-02-21T02:51:21;4.60;99.90
46217;DHT22;47258;59.424;13.482;2024-02-21T02:53:46;4.60;99.90
46217;DHT22;47258;59.424;13.482;2024-02-21T02:56:15;4.60;99.90
46217;DHT22;47258;59.424;13.482;2024-02-21T02:58:43;4.70;99.90
46217;DHT22;47258;59.424;13.482;2024-02-21T03:01:08;4.70;99.90
46217;DHT22;47258;59.424;13.482;2024-02-21T03:03:34;4.70;99.90
46217;DHT22;47258;59.424;13.482;2024-02-21T03:06:00;4.60;99.90
46217;DHT22;47258;59.424;13.482;2024-02-21T03:08:26;4.60;99.90
46217;DHT22;47258;59.424;13.482;2024-02-21T03:10:52;4.60;99.90
46217;DHT22;47258;59.424;13.482;2024-02-21T03:13:17;4.70;99.90
46217;DHT22;47258;59.424;13.482;2024-02-21T03:15:43;4.70;99.90
46217;DHT22;47258;59.424;13.482;2024-02-21T03:18:08;4.70;99.90
46217;DHT22;47258;59.424;13.482;2024-02-21T03:20:35;4.70;99.90
46217;DHT22;47258;59.424;13.482;2024-02-21T03:23:01;4.70;99.90
46217;DHT22;47258;59.424;13.482;2024-02-21T03:25:27;4.70;99.90
46217;DHT22;47258;59.424;13.482;2024-02-21T03:27:52;4.70;99.90
46217;DHT22;47258;59.424;13.482;2024-02-21T03:30:18;4.70;99.90
46217;DHT22;47258;59.424;13.482;2024-02-21T03:32:44;4.70;99.90
46217;DHT22;47258;59.424;13.482;2024-02-21T03:35:10;4.70;99.90
46217;DHT22;47258;59.424;13.482;2024-02-21T03:37:35;4.70;99.90
46217;DHT22;47258;59.424;13.482;2024-02-21T03:40:01;4.70;99.90
46217;DHT22;47258;59.424;13.482;2024-02-21T03:42:27;4.70;99.90
46217;DHT22;47258;59.424;13.482;2024-02-21T03:44:55;4.70;99.90
46217;DHT22;47258;59.424;13.482;2024-02-21T03:47:21;4.70;99.90
46217;DHT22;47258;59.424;13.482;2024-02-21T03:49:47;4.70;99.90
46217;DHT22;47258;59.424;13.482;2024-02-21T03:52:13;4.70;99.90
46217;DHT22;47258;59.424;13.482;2024-02-21T03:54:38;4.70;99.90
46217;DHT22;47258;59.424;13.482;2024-02-21T03:57:05;4.70;99.90
46217;DHT22;47258;59.424;13.482;2024-02-21T03:59:31;4.70;99.90
46217;DHT22;47258;59.424;13.482;2024-02-21T04:01:57;4.70;99.90
46217;DHT22;47258;59.424;13.482;2024-02-21T04:04:23;4.70;99.90
46217;DHT22;47258;59.424;13.482;2024-02-21T04:06:49;4.70;99.90
46217;DHT22;47258;59.424;13.482;2024-02-21T04:09:15;4.70;99.90
46217;DHT22;47258;59.424;13.482;2024-02-21T04:11:41;4.80;99.90
46217;DHT22;47258;59.424;13.482;2024-02-21T04:14:07;4.80;99.90
46217;DHT22;47258;59.424;13.482;2024-02-21T04:16:33;4.80;99.90
46217;DHT22;47258;59.424;13.482;2024-02-21T04:18:59;4.80;99.90
46217;DHT22;47258;59.424;13.482;2024-02-21T04:21:25;4.80;99.90
46217;DHT22;47258;59.424;13.482;2024-02-21T04:23:50;4.80;99.90
46217;DHT22;47258;59.424;13.482;2024-02-21T04:26:16;4.80;99.90
46217;DHT22;47258;59.424;13.482;2024-02-21T04:28:42;4.80;99.90
46217;DHT22;47258;59.424;13.482;2024-02-21T04:31:10;4.80;99.90
46217;DHT22;47258;59.424;13.482;2024-02-21T04:33:35;4.80;99.90
46217;DHT22;47258;59.424;13.482;2024-02-21T04:36:01;4.80;99.90
46217;DHT22;47258;59.424;13.482;2024-02-21T04:38:27;4.80;99.90
46217;DHT22;47258;59.424;13.482;2024-02-21T04:40:55;4.80;99.90
46217;DHT22;47258;59.424;13.482;2024-02-21T04:43:24;4.90;99.90
46217;DHT22;47258;59.424;13.482;2024-02-21T04:45:50;4.90;99.90
46217;DHT22;47258;59.424;13.482;2024-02-21T04:48:16;4.90;99.90
46217;DHT22;47258;59.424;13.482;2024-02-21T04:50:42;4.80;99.90
46217;DHT22;47258;59.424;13.482;2024-02-21T04:53:07;4.90;99.90
46217;DHT22;47258;59.424;13.482;2024-02-21T04:55:33;4.90;99.90
46217;DHT22;47258;59.424;13.482;2024-02-21T04:57:59;4.90;99.90
46217;DHT22;47258;59.424;13.482;2024-02-21T05:00:27;4.90;99.90
46217;DHT22;47258;59.424;13.482;2024-02-21T05:02:53;4.90;99.90
46217;DHT22;47258;59.424;13.482;2024-02-21T05:05:19;4.90;99.90
46217;DHT22;47258;59.424;13.482;2024-02-21T05:07:45;4.90;99.90
46217;DHT22;47258;59.424;13.482;2024-02-21T05:10:10;4.90;99.90
46217;DHT22;47258;59.424;13.482;2024-02-21T05:12:36;4.90;99.90
46217;DHT22;47258;59.424;13.482;2024-02-21T05:15:03;4.90;99.90
46217;DHT22;47258;59.424;13.482;2024-02-21T05:17:28;4.90;99.90
46217;DHT22;47258;59.424;13.482;2024-02-21T05:19:54;4.90;99.90
46217;DHT22;47258;59.424;13.482;2024-02-21T05:22:20;4.80;99.90
46217;DHT22;47258;59.424;13.482;2024-02-21T05:24:45;4.90;99.90
46217;DHT22;47258;59.424;13.482;2024-02-21T05:27:11;4.90;99.90
46217;DHT22;47258;59.424;13.482;2024-02-21T05:29:37;4.80;99.90
46217;DHT22;47258;59.424;13.482;2024-02-21T05:32:03;4.80;99.90
46217;DHT22;47258;59.424;13.482;2024-02-21T05:34:29;4.90;99.90
46217;DHT22;47258;59.424;13.482;2024-02-21T05:36:54;4.90;99.90
46217;DHT22;47258;59.424;13.482;2024-02-21T05:39:20;4.80;99.90
46217;DHT22;47258;59.424;13.482;2024-02-21T05:41:48;4.80;99.90
46217;DHT22;47258;59.424;13.482;2024-02-21T05:44:15;4.80;99.90
46217;DHT22;47258;59.424;13.482;2024-02-21T05:46:41;4.80;99.90
46217;DHT22;47258;59.424;13.482;2024-02-21T05:49:06;4.80;99.90
46217;DHT22;47258;59.424;13.482;2024-02-21T05:51:33;4.80;99.90
46217;DHT22;47258;59.424;13.482;2024-02-21T05:53:59;4.80;99.90
46217;DHT22;47258;59.424;13.482;2024-02-21T05:56:24;4.80;99.90
46217;DHT22;47258;59.424;13.482;2024-02-21T05:58:50;4.80;99.90
46217;DHT22;47258;59.424;13.482;2024-02-21T06:01:16;4.80;99.90
46217;DHT22;47258;59.424;13.482;2024-02-21T06:03:43;4.70;99.90
46217;DHT22;47258;59.424;13.482;2024-02-21T06:06:08;4.80;99.90
46217;DHT22;47258;59.424;13.482;2024-02-21T06:08:34;4.80;99.90
46217;DHT22;47258;59.424;13.482;2024-02-21T06:11:00;4.80;99.90
46217;DHT22;47258;59.424;13.482;2024-02-21T06:13:26;4.80;99.90
46217;DHT22;47258;59.424;13.482;2024-02-21T06:15:52;4.70;99.90
46217;DHT22;47258;59.424;13.482;2024-02-21T06:18:18;4.70;99.90
46217;DHT22;47258;59.424;13.482;2024-02-21T06:20:44;4.70;99.90
46217;DHT22;47258;59.424;13.482;2024-02-21T06:23:17;4.70;99.90
46217;DHT22;47258;59.424;13.482;2024-02-21T06:25:43;4.70;99.90
46217;DHT22;47258;59.424;13.482;2024-02-21T06:28:09;4.70;99.90
46217;DHT22;47258;59.424;13.482;2024-02-21T06:30:35;4.70;99.90
46217;DHT22;47258;59.424;13.482;2024-02-21T06:33:01;4.70;99.90
46217;DHT22;47258;59.424;13.482;2024-02-21T06:35:28;4.70;99.90
46217;DHT22;47258;59.424;13.482;2024-02-21T06:37:54;4.70;99.90
46217;DHT22;47258;59.424;13.482;2024-02-21T06:40:23;4.80;99.90
46217;DHT22;47258;59.424;13.482;2024-02-21T06:42:49;4.80;99.90
46217;DHT22;47258;59.424;13.482;2024-02-21T06:45:15;4.80;99.90
46217;DHT22;47258;59.424;13.482;2024-02-21T06:47:42;4.80;99.90
46217;DHT22;47258;59.424;13.482;2024-02-21T06:50:08;4.80;99.90
46217;DHT22;47258;59.424;13.482;2024-02-21T06:52:36;4.80;99.90
46217;DHT22;47258;59.424;13.482;2024-02-21T06:55:02;4.80;99.90
46217;DHT22;47258;59.424;13.482;2024-02-21T06:57:34;4.80;99.90
46217;DHT22;47258;59.424;13.482;2024-02-21T07:00:00;4.80;99.90
46217;DHT22;47258;59.424;13.482;2024-02-21T07:02:28;4.70;99.90
46217;DHT22;47258;59.424;13.482;2024-02-21T07:05:18;4.60;99.90
46217;DHT22;47258;59.424;13.482;2024-02-21T07:07:44;4.50;99.90
46217;DHT22;47258;59.424;13.482;2024-02-21T07:10:11;4.40;99.90
46217;DHT22;47258;59.424;13.482;2024-02-21T07:12:36;4.30;99.90
46217;DHT22;47258;59.424;13.482;2024-02-21T07:15:07;4.30;99.90
46217;DHT22;47258;59.424;13.482;2024-02-21T07:17:33;4.10;99.90
46217;DHT22;47258;59.424;13.482;2024-02-21T07:19:59;4.10;99.90
46217;DHT22;47258;59.424;13.482;2024-02-21T07:22:26;4.00;99.90
46217;DHT22;47258;59.424;13.482;2024-02-21T07:24:53;3.90;99.90
46217;DHT22;47258;59.424;13.482;2024-02-21T07:27:19;4.00;99.90
46217;DHT22;47258;59.424;13.482;2024-02-21T07:29:44;4.00;99.90
46217;DHT22;47258;59.424;13.482;2024-02-21T07:32:13;4.10;99.90
46217;DHT22;47258;59.424;13.482;2024-02-21T07:34:38;4.20;99.90
46217;DHT22;47258;59.424;13.482;2024-02-21T07:37:04;4.30;99.90
46217;DHT22;47258;59.424;13.482;2024-02-21T07:39:30;4.30;99.90
46217;DHT22;47258;59.424;13.482;2024-02-21T07:41:55;4.30;99.90
46217;DHT22;47258;59.424;13.482;2024-02-21T07:44:21;4.30;99.90
46217;DHT22;47258;59.424;13.482;2024-02-21T07:46:47;4.30;99.90
46217;DHT22;47258;59.424;13.482;2024-02-21T07:49:12;4.40;99.90
46217;DHT22;47258;59.424;13.482;2024-02-21T07:51:38;4.40;99.90
46217;DHT22;47258;59.424;13.482;2024-02-21T07:54:04;4.30;99.90
46217;DHT22;47258;59.424;13.482;2024-02-21T07:56:30;4.20;99.90
46217;DHT22;47258;59.424;13.482;2024-02-21T07:58:55;4.20;99.90
46217;DHT22;47258;59.424;13.482;2024-02-21T08:01:21;4.30;99.90
46217;DHT22;47258;59.424;13.482;2024-02-21T08:03:47;4.30;99.90
46217;DHT22;47258;59.424;13.482;2024-02-21T08:06:14;4.40;99.90
46217;DHT22;47258;59.424;13.482;2024-02-21T08:08:40;4.50;99.90
46217;DHT22;47258;59.424;13.482;2024-02-21T08:11:05;4.60;99.90
46217;DHT22;47258;59.424;13.482;2024-02-21T08:13:31;4.60;99.90
46217;DHT22;47258;59.424;13.482;2024-02-21T08:15:57;4.70;99.90
46217;DHT22;47258;59.424;13.482;2024-02-21T08:18:23;4.70;99.90
46217;DHT22;47258;59.424;13.482;2024-02-21T08:20:49;4.70;99.90
46217;DHT22;47258;59.424;13.482;2024-02-21T08:23:16;4.70;99.90
46217;DHT22;47258;59.424;13.482;2024-02-21T08:25:42;4.80;99.90
46217;DHT22;47258;59.424;13.482;2024-02-21T08:28:08;4.80;99.90
46217;DHT22;47258;59.424;13.482;2024-02-21T08:30:33;4.90;99.90
46217;DHT22;47258;59.424;13.482;2024-02-21T08:33:00;5.00;99.90
46217;DHT22;47258;59.424;13.482;2024-02-21T08:35:25;5.00;99.90
46217;DHT22;47258;59.424;13.482;2024-02-21T08:37:51;5.00;99.90
46217;DHT22;47258;59.424;13.482;2024-02-21T08:40:17;5.00;99.90
46217;DHT22;47258;59.424;13.482;2024-02-21T08:42:45;5.00;99.90
46217;DHT22;47258;59.424;13.482;2024-02-21T08:45:10;5.00;99.90
46217;DHT22;47258;59.424;13.482;2024-02-21T08:47:39;5.10;99.90
46217;DHT22;47258;59.424;13.482;2024-02-21T08:50:05;5.10;99.90
46217;DHT22;47258;59.424;13.482;2024-02-21T08:52:31;5.10;99.90
46217;DHT22;47258;59.424;13.482;2024-02-21T08:54:57;5.20;99.90
46217;DHT22;47258;59.424;13.482;2024-02-21T08:57:23;5.20;99.90
46217;DHT22;47258;59.424;13.482;2024-02-21T08:59:48;5.20;99.90
46217;DHT22;47258;59.424;13.482;2024-02-21T09:02:14;5.20;99.90
46217;DHT22;47258;59.424;13.482;2024-02-21T09:04:42;5.20;99.90
46217;DHT22;47258;59.424;13.482;2024-02-21T09:07:09;5.00;99.90
46217;DHT22;47258;59.424;13.482;2024-02-21T09:09:35;5.00;99.90
46217;DHT22;47258;59.424;13.482;2024-02-21T09:12:01;4.80;99.90
46217;DHT22;47258;59.424;13.482;2024-02-21T09:14:32;4.80;99.90
46217;DHT22;47258;59.424;13.482;2024-02-21T09:16:57;4.70;99.90
46217;DHT22;47258;59.424;13.482;2024-02-21T09:19:23;4.80;99.90
46217;DHT22;47258;59.424;13.482;2024-02-21T09:21:49;4.80;99.90
46217;DHT22;47258;59.424;13.482;2024-02-21T09:24:15;4.80;99.90
46217;DHT22;47258;59.424;13.482;2024-02-21T09:26:40;4.70;99.90
46217;DHT22;47258;59.424;13.482;2024-02-21T09:29:06;4.80;99.90
46217;DHT22;47258;59.424;13.482;2024-02-21T09:31:32;4.80;99.90
46217;DHT22;47258;59.424;13.482;2024-02-21T09:33:57;4.80;99.90
46217;DHT22;47258;59.424;13.482;2024-02-21T09:36:23;4.80;99.90
46217;DHT22;47258;59.424;13.482;2024-02-21T09:38:49;4.80;99.90
46217;DHT22;47258;59.424;13.482;2024-02-21T09:41:25;4.80;99.90
46217;DHT22;47258;59.424;13.482;2024-02-21T09:43:51;4.90;99.90
46217;DHT22;47258;59.424;13.482;2024-02-21T09:46:21;4.90;99.90
46217;DHT22;47258;59.424;13.482;2024-02-21T09:51:35;5.10;99.90
46217;DHT22;47258;59.424;13.482;2024-02-21T09:54:03;5.20;99.90
46217;DHT22;47258;59.424;13.482;2024-02-21T09:56:28;5.30;99.90
46217;DHT22;47258;59.424;13.482;2024-02-21T09:58:57;5.50;99.90
46217;DHT22;47258;59.424;13.482;2024-02-21T10:01:23;5.50;99.90
46217;DHT22;47258;59.424;13.482;2024-02-21T10:03:49;5.60;99.90
46217;DHT22;47258;59.424;13.482;2024-02-21T10:06:15;5.70;99.90
46217;DHT22;47258;59.424;13.482;2024-02-21T10:08:40;5.80;99.90
46217;DHT22;47258;59.424;13.482;2024-02-21T10:11:06;5.90;99.90
46217;DHT22;47258;59.424;13.482;2024-02-21T10:13:34;6.00;99.90
46217;DHT22;47258;59.424;13.482;2024-02-21T10:16:04;6.10;99.90
46217;DHT22;47258;59.424;13.482;2024-02-21T10:18:30;6.20;99.90
46217;DHT22;47258;59.424;13.482;2024-02-21T10:21:07;6.20;99.90
46217;DHT22;47258;59.424;13.482;2024-02-21T10:23:46;6.30;99.90
46217;DHT22;47258;59.424;13.482;2024-02-21T10:26:13;6.30;99.90
46217;DHT22;47258;59.424;13.482;2024-02-21T10:28:39;6.30;99.90
46217;DHT22;47258;59.424;13.482;2024-02-21T10:31:30;6.30;99.90
46217;DHT22;47258;59.424;13.482;2024-02-21T10:34:00;6.20;99.90
46217;DHT22;47258;59.424;13.482;2024-02-21T10:36:29;6.20;99.90
46217;DHT22;47258;59.424;13.482;2024-02-21T10:38:55;6.20;99.90
46217;DHT22;47258;59.424;13.482;2024-02-21T10:41:21;6.20;99.90
46217;DHT22;47258;59.424;13.482;2024-02-21T10:43:53;6.20;99.90
46217;DHT22;47258;59.424;13.482;2024-02-21T10:46:21;6.00;99.90
46217;DHT22;47258;59.424;13.482;2024-02-21T10:48:48;5.90;99.90
46217;DHT22;47258;59.424;13.482;2024-02-21T10:51:27;5.80;99.90
46217;DHT22;47258;59.424;13.482;2024-02-21T10:53:59;5.70;99.90
46217;DHT22;47258;59.424;13.482;2024-02-21T10:56:32;5.80;99.90
46217;DHT22;47258;59.424;13.482;2024-02-21T10:59:02;5.80;99.90
46217;DHT22;47258;59.424;13.482;2024-02-21T11:01:29;5.80;99.90
46217;DHT22;47258;59.424;13.482;2024-02-21T11:03:59;5.70;99.90
46217;DHT22;47258;59.424;13.482;2024-02-21T11:06:26;5.70;99.90
46217;DHT22;47258;59.424;13.482;2024-02-21T11:09:28;5.70;99.90
46217;DHT22;47258;59.424;13.482;2024-02-21T11:11:55;5.70;99.90
46217;DHT22;47258;59.424;13.482;2024-02-21T11:14:21;5.70;99.90
46217;DHT22;47258;59.424;13.482;2024-02-21T11:16:47;5.70;99.90
46217;DHT22;47258;59.424;13.482;2024-02-21T11:21:45;5.70;99.90
46217;DHT22;47258;59.424;13.482;2024-02-21T11:24:11;5.70;99.90
46217;DHT22;47258;59.424;13.482;2024-02-21T11:26:40;5.80;99.90
46217;DHT22;47258;59.424;13.482;2024-02-21T11:29:09;5.80;99.90
46217;DHT22;47258;59.424;13.482;2024-02-21T11:31:40;5.60;99.90
46217;DHT22;47258;59.424;13.482;2024-02-21T11:34:10;5.50;99.90
46217;DHT22;47258;59.424;13.482;2024-02-21T11:36:45;5.40;99.90
46217;DHT22;47258;59.424;13.482;2024-02-21T11:39:11;5.20;99.90
46217;DHT22;47258;59.424;13.482;2024-02-21T11:41:37;5.10;99.90
46217;DHT22;47258;59.424;13.482;2024-02-21T11:44:03;5.00;99.90
46217;DHT22;47258;59.424;13.482;2024-02-21T11:46:29;4.90;99.90
46217;DHT22;47258;59.424;13.482;2024-02-21T11:48:55;4.90;99.90
46217;DHT22;47258;59.424;13.482;2024-02-21T11:51:25;4.80;99.90
46217;DHT22;47258;59.424;13.482;2024-02-21T11:53:52;4.80;99.90
46217;DHT22;47258;59.424;13.482;2024-02-21T11:56:19;4.80;99.90
46217;DHT22;47258;59.424;13.482;2024-02-21T11:58:46;4.90;99.90
46217;DHT22;47258;59.424;13.482;2024-02-21T12:01:13;4.90;99.90
46217;DHT22;47258;59.424;13.482;2024-02-21T12:03:39;4.90;99.90
46217;DHT22;47258;59.424;13.482;2024-02-21T12:06:07;4.80;99.90
46217;DHT22;47258;59.424;13.482;2024-02-21T12:08:42;4.80;99.90
46217;DHT22;47258;59.424;13.482;2024-02-21T12:13:44;4.80;99.90
46217;DHT22;47258;59.424;13.482;2024-02-21T12:16:09;4.80;99.90
46217;DHT22;47258;59.424;13.482;2024-02-21T12:18:35;4.70;99.90
46217;DHT22;47258;59.424;13.482;2024-02-21T12:21:01;4.70;99.90
46217;DHT22;47258;59.424;13.482;2024-02-21T12:23:27;4.80;99.90
46217;DHT22;47258;59.424;13.482;2024-02-21T12:25:53;4.80;99.90
46217;DHT22;47258;59.424;13.482;2024-02-21T12:28:21;4.70;99.90
46217;DHT22;47258;59.424;13.482;2024-02-21T12:30:48;4.70;99.90
46217;DHT22;47258;59.424;13.482;2024-02-21T12:33:14;4.70;99.90
46217;DHT22;47258;59.424;13.482;2024-02-21T12:35:40;4.70;99.90
46217;DHT22;47258;59.424;13.482;2024-02-21T12:38:05;4.70;99.90
46217;DHT22;47258;59.424;13.482;2024-02-21T12:40:31;4.60;99.90
46217;DHT22;47258;59.424;13.482;2024-02-21T12:42:59;4.60;99.90
46217;DHT22;47258;59.424;13.482;2024-02-21T12:45:25;4.60;99.90
46217;DHT22;47258;59.424;13.482;2024-02-21T12:47:51;4.60;99.90
46217;DHT22;47258;59.424;13.482;2024-02-21T12:50:17;4.60;99.90
46217;DHT22;47258;59.424;13.482;2024-02-21T12:52:45;4.70;99.90
46217;DHT22;47258;59.424;13.482;2024-02-21T12:55:10;4.70;99.90
46217;DHT22;47258;59.424;13.482;2024-02-21T12:57:38;4.80;99.90
46217;DHT22;47258;59.424;13.482;2024-02-21T13:00:05;4.80;99.90
46217;DHT22;47258;59.424;13.482;2024-02-21T13:02:36;4.80;99.90
46217;DHT22;47258;59.424;13.482;2024-02-21T13:05:02;4.80;99.90
46217;DHT22;47258;59.424;13.482;2024-02-21T13:07:29;4.80;99.90
46217;DHT22;47258;59.424;13.482;2024-02-21T13:09:54;4.80;99.90
46217;DHT22;47258;59.424;13.482;2024-02-21T13:12:20;4.80;99.90
46217;DHT22;47258;59.424;13.482;2024-02-21T13:14:46;4.80;99.90
46217;DHT22;47258;59.424;13.482;2024-02-21T13:17:12;4.80;99.90
46217;DHT22;47258;59.424;13.482;2024-02-21T13:19:37;4.80;99.90
46217;DHT22;47258;59.424;13.482;2024-02-21T13:22:03;4.70;99.90
46217;DHT22;47258;59.424;13.482;2024-02-21T13:24:30;4.70;99.90
46217;DHT22;47258;59.424;13.482;2024-02-21T13:26:55;4.70;99.90
46217;DHT22;47258;59.424;13.482;2024-02-21T13:29:21;4.70;99.90
46217;DHT22;47258;59.424;13.482;2024-02-21T13:31:47;4.60;99.90
46217;DHT22;47258;59.424;13.482;2024-02-21T13:34:13;4.60;99.90
46217;DHT22;47258;59.424;13.482;2024-02-21T13:36:38;4.50;99.90
46217;DHT22;47258;59.424;13.482;2024-02-21T13:39:04;4.40;99.90
46217;DHT22;47258;59.424;13.482;2024-02-21T13:41:34;4.30;99.90
46217;DHT22;47258;59.424;13.482;2024-02-21T13:44:00;4.30;99.90
46217;DHT22;47258;59.424;13.482;2024-02-21T13:46:26;4.30;99.90
46217;DHT22;47258;59.424;13.482;2024-02-21T13:48:56;4.30;99.90
46217;DHT22;47258;59.424;13.482;2024-02-21T13:51:27;4.30;99.90
46217;DHT22;47258;59.424;13.482;2024-02-21T13:53:53;4.20;99.90
46217;DHT22;47258;59.424;13.482;2024-02-21T13:56:19;4.20;99.90
46217;DHT22;47258;59.424;13.482;2024-02-21T13:58:44;4.20;99.90
46217;DHT22;47258;59.424;13.482;2024-02-21T14:01:10;4.20;99.90
46217;DHT22;47258;59.424;13.482;2024-02-21T14:03:35;4.10;99.90
46217;DHT22;47258;59.424;13.482;2024-02-21T14:06:01;4.00;99.90
46217;DHT22;47258;59.424;13.482;2024-02-21T14:08:27;4.00;99.90
46217;DHT22;47258;59.424;13.482;2024-02-21T14:10:53;4.00;99.90
46217;DHT22;47258;59.424;13.482;2024-02-21T14:13:20;3.90;99.90
46217;DHT22;47258;59.424;13.482;2024-02-21T14:15:46;3.80;99.90
46217;DHT22;47258;59.424;13.482;2024-02-21T14:18:13;3.80;99.90
46217;DHT22;47258;59.424;13.482;2024-02-21T14:20:39;3.70;99.90
46217;DHT22;47258;59.424;13.482;2024-02-21T14:23:05;3.70;99.90
46217;DHT22;47258;59.424;13.482;2024-02-21T14:25:30;3.70;99.90
46217;DHT22;47258;59.424;13.482;2024-02-21T14:27:56;3.70;99.90
46217;DHT22;47258;59.424;13.482;2024-02-21T14:30:22;3.70;99.90
46217;DHT22;47258;59.424;13.482;2024-02-21T14:32:47;3.70;99.90
46217;DHT22;47258;59.424;13.482;2024-02-21T14:35:13;3.60;99.90
46217;DHT22;47258;59.424;13.482;2024-02-21T14:37:39;3.60;99.90
46217;DHT22;47258;59.424;13.482;2024-02-21T14:40:04;3.60;99.90
46217;DHT22;47258;59.424;13.482;2024-02-21T14:42:31;3.60;99.90
46217;DHT22;47258;59.424;13.482;2024-02-21T14:44:57;3.70;99.90
46217;DHT22;47258;59.424;13.482;2024-02-21T14:47:30;3.70;99.90
46217;DHT22;47258;59.424;13.482;2024-02-21T14:49:56;3.70;99.90
46217;DHT22;47258;59.424;13.482;2024-02-21T14:52:21;3.70;99.90
46217;DHT22;47258;59.424;13.482;2024-02-21T14:54:47;3.60;99.90
46217;DHT22;47258;59.424;13.482;2024-02-21T14:57:17;3.60;99.90
46217;DHT22;47258;59.424;13.482;2024-02-21T14:59:43;3.60;99.90
46217;DHT22;47258;59.424;13.482;2024-02-21T15:02:09;3.60;99.90
46217;DHT22;47258;59.424;13.482;2024-02-21T15:04:35;3.70;99.90
46217;DHT22;47258;59.424;13.482;2024-02-21T15:07:01;3.60;99.90
46217;DHT22;47258;59.424;13.482;2024-02-21T15:09:28;3.60;99.90
46217;DHT22;47258;59.424;13.482;2024-02-21T15:11:54;3.60;99.90
46217;DHT22;47258;59.424;13.482;2024-02-21T15:14:19;3.60;99.90
46217;DHT22;47258;59.424;13.482;2024-02-21T15:16:49;3.50;99.90
46217;DHT22;47258;59.424;13.482;2024-02-21T15:19:15;3.40;99.90
46217;DHT22;47258;59.424;13.482;2024-02-21T15:21:40;3.40;99.90
46217;DHT22;47258;59.424;13.482;2024-02-21T15:24:06;3.40;99.90
46217;DHT22;47258;59.424;13.482;2024-02-21T15:26:32;3.40;99.90
46217;DHT22;47258;59.424;13.482;2024-02-21T15:28:57;3.40;99.90
46217;DHT22;47258;59.424;13.482;2024-02-21T15:31:24;3.40;99.90
46217;DHT22;47258;59.424;13.482;2024-02-21T15:33:51;3.40;99.90